Japan Airlines Virtual Airport Information Service

Sapporo New Chitose Airport

ICAO: RJCC Country: Japan
Latitude: 42.7752 Longitude: 141.692
Latest Arrival : JAL2832 (RJSI-RJCC) Latest Departure : SCC512 (RJCC-RKPC)


WX CaptureLIVE
Data provided by noaa.gov | Fetched at 16:56:59

METAR : RJCC 041630Z 14004KT 9999 FEW020 M06/M07 Q1018 RMK 1CU020 A3007

TAF : RJCC 041105Z 0412/0518 32006KT 9999 FEW015 SCT040 BECMG 0418/0420 21006KT BECMG 0422/0500 31005KT BECMG 0506/0509 16006KT


Runway Data for RJCC
Data provided by openaviationdata.com

Runway ID Mag Var Hdg Length Elevation Surface ILS Freq ILS Id ILS Slope
01L -9 9851 ft 70 ft Asphalt 110.9 ICN 3
01R -9 9845 ft 70 ft Asphalt 110.75 ICH 3
19L -9 181° 9845 ft 70 ft Asphalt -- -- --
19R -9 181° 9851 ft 70 ft Asphalt 111.5 ICS 3

Sapporo New Chitose Airport, Japan
Use only for reference purposes



Not for navigational purposes.